sensor_id;sensor_type;location;lat;lon;timestamp;pressure;altitude;pressure_sealevel;temperature;humidity
6198;BME280;3132;42.622;23.328;2023-11-19T00:00:29;92670.78;;;3.16;83.60
6198;BME280;3132;42.622;23.328;2023-11-19T00:02:54;92666.56;;;3.10;82.95
6198;BME280;3132;42.622;23.328;2023-11-19T00:05:19;92662.53;;;3.14;83.75
6198;BME280;3132;42.622;23.328;2023-11-19T00:07:45;92653.66;;;3.10;83.07
6198;BME280;3132;42.622;23.328;2023-11-19T00:10:12;92661.81;;;3.18;82.53
6198;BME280;3132;42.622;23.328;2023-11-19T00:12:39;92673.91;;;3.18;82.81
6198;BME280;3132;42.622;23.328;2023-11-19T00:15:05;92665.94;;;3.03;82.92
6198;BME280;3132;42.622;23.328;2023-11-19T00:17:32;92668.84;;;3.06;81.88
6198;BME280;3132;42.622;23.328;2023-11-19T00:19:57;92653.44;;;3.11;82.44
6198;BME280;3132;42.622;23.328;2023-11-19T00:22:22;92673.47;;;3.21;83.17
6198;BME280;3132;42.622;23.328;2023-11-19T00:24:48;92691.41;;;3.16;82.43
6198;BME280;3132;42.622;23.328;2023-11-19T00:27:13;92672.97;;;3.07;82.72
6198;BME280;3132;42.622;23.328;2023-11-19T00:29:39;92672.22;;;3.23;82.47
6198;BME280;3132;42.622;23.328;2023-11-19T00:32:04;92673.31;;;3.11;82.41
6198;BME280;3132;42.622;23.328;2023-11-19T00:34:30;92675.13;;;2.99;83.01
6198;BME280;3132;42.622;23.328;2023-11-19T00:36:56;92664.41;;;2.90;83.09
6198;BME280;3132;42.622;23.328;2023-11-19T00:39:21;92675.75;;;3.17;82.35
6198;BME280;3132;42.622;23.328;2023-11-19T00:41:47;92687.66;;;3.07;82.79
6198;BME280;3132;42.622;23.328;2023-11-19T00:44:13;92655.94;;;3.06;85.33
6198;BME280;3132;42.622;23.328;2023-11-19T00:46:38;92691.41;;;3.16;82.29
6198;BME280;3132;42.622;23.328;2023-11-19T00:49:04;92695.00;;;2.98;83.32
6198;BME280;3132;42.622;23.328;2023-11-19T00:51:29;92677.72;;;2.99;83.49
6198;BME280;3132;42.622;23.328;2023-11-19T00:53:57;92682.50;;;3.07;83.21
6198;BME280;3132;42.622;23.328;2023-11-19T00:56:22;92693.13;;;3.10;83.98
6198;BME280;3132;42.622;23.328;2023-11-19T00:58:48;92683.16;;;3.14;82.67
6198;BME280;3132;42.622;23.328;2023-11-19T01:01:13;92695.69;;;3.22;82.52
6198;BME280;3132;42.622;23.328;2023-11-19T01:03:39;92692.63;;;3.25;83.02
6198;BME280;3132;42.622;23.328;2023-11-19T01:06:04;92704.53;;;3.14;82.77
6198;BME280;3132;42.622;23.328;2023-11-19T01:08:30;92673.00;;;2.96;83.36
6198;BME280;3132;42.622;23.328;2023-11-19T01:10:55;92699.16;;;3.16;82.73
6198;BME280;3132;42.622;23.328;2023-11-19T01:13:21;92660.22;;;3.01;82.94
6198;BME280;3132;42.622;23.328;2023-11-19T01:15:46;92669.91;;;2.94;83.05
6198;BME280;3132;42.622;23.328;2023-11-19T01:18:13;92700.19;;;3.31;83.08
6198;BME280;3132;42.622;23.328;2023-11-19T01:20:38;92694.28;;;3.31;82.99
6198;BME280;3132;42.622;23.328;2023-11-19T01:23:03;92686.25;;;3.16;83.05
6198;BME280;3132;42.622;23.328;2023-11-19T01:25:29;92679.22;;;3.11;85.24
6198;BME280;3132;42.622;23.328;2023-11-19T01:27:54;92697.22;;;3.06;82.49
6198;BME280;3132;42.622;23.328;2023-11-19T01:30:22;92689.06;;;3.14;82.66
6198;BME280;3132;42.622;23.328;2023-11-19T01:32:48;92698.72;;;3.19;83.16
6198;BME280;3132;42.622;23.328;2023-11-19T01:35:13;92691.88;;;3.13;84.01
6198;BME280;3132;42.622;23.328;2023-11-19T01:37:39;92682.94;;;2.87;83.38
6198;BME280;3132;42.622;23.328;2023-11-19T01:40:05;92698.78;;;2.96;83.18
6198;BME280;3132;42.622;23.328;2023-11-19T01:42:39;92690.56;;;3.10;82.59
6198;BME280;3132;42.622;23.328;2023-11-19T01:45:05;92674.75;;;3.07;83.02
6198;BME280;3132;42.622;23.328;2023-11-19T01:47:35;92679.00;;;2.85;83.31
6198;BME280;3132;42.622;23.328;2023-11-19T01:50:02;92678.72;;;2.70;83.69
6198;BME280;3132;42.622;23.328;2023-11-19T01:52:32;92649.31;;;2.54;83.90
6198;BME280;3132;42.622;23.328;2023-11-19T01:55:01;92685.31;;;2.77;83.87
6198;BME280;3132;42.622;23.328;2023-11-19T01:57:26;92685.34;;;2.66;83.47
6198;BME280;3132;42.622;23.328;2023-11-19T01:59:52;92674.84;;;2.56;83.41
6198;BME280;3132;42.622;23.328;2023-11-19T02:02:18;92681.63;;;2.73;83.38
6198;BME280;3132;42.622;23.328;2023-11-19T02:04:50;92691.59;;;2.70;83.71
6198;BME280;3132;42.622;23.328;2023-11-19T02:07:16;92695.66;;;2.66;83.80
6198;BME280;3132;42.622;23.328;2023-11-19T02:09:43;92692.91;;;2.84;83.88
6198;BME280;3132;42.622;23.328;2023-11-19T02:12:09;92695.66;;;2.66;83.28
6198;BME280;3132;42.622;23.328;2023-11-19T02:14:37;92670.03;;;2.59;83.87
6198;BME280;3132;42.622;23.328;2023-11-19T02:17:02;92692.41;;;2.70;83.11
6198;BME280;3132;42.622;23.328;2023-11-19T02:19:28;92694.06;;;2.65;81.96
6198;BME280;3132;42.622;23.328;2023-11-19T02:21:54;92702.13;;;2.80;81.87
6198;BME280;3132;42.622;23.328;2023-11-19T02:24:22;92705.00;;;2.83;81.74
6198;BME280;3132;42.622;23.328;2023-11-19T02:27:08;92701.84;;;2.93;81.33
6198;BME280;3132;42.622;23.328;2023-11-19T02:29:35;92711.69;;;2.96;82.34
6198;BME280;3132;42.622;23.328;2023-11-19T02:32:01;92714.22;;;2.79;82.96
6198;BME280;3132;42.622;23.328;2023-11-19T02:34:27;92706.38;;;2.74;81.94
6198;BME280;3132;42.622;23.328;2023-11-19T02:36:52;92687.19;;;2.82;80.87
6198;BME280;3132;42.622;23.328;2023-11-19T02:39:18;92688.88;;;2.88;81.97
6198;BME280;3132;42.622;23.328;2023-11-19T02:41:47;92644.34;;;2.64;82.64
6198;BME280;3132;42.622;23.328;2023-11-19T02:44:15;92689.31;;;2.85;81.28
6198;BME280;3132;42.622;23.328;2023-11-19T02:46:40;92687.94;;;2.66;82.14
6198;BME280;3132;42.622;23.328;2023-11-19T02:49:07;92693.44;;;2.58;81.91
6198;BME280;3132;42.622;23.328;2023-11-19T02:51:33;92684.91;;;2.69;82.09
6198;BME280;3132;42.622;23.328;2023-11-19T02:53:59;92691.03;;;2.68;82.39
6198;BME280;3132;42.622;23.328;2023-11-19T02:56:25;92670.25;;;2.46;81.79
6198;BME280;3132;42.622;23.328;2023-11-19T02:58:51;92689.38;;;2.62;80.69
6198;BME280;3132;42.622;23.328;2023-11-19T03:01:24;92642.81;;;2.52;80.67
6198;BME280;3132;42.622;23.328;2023-11-19T03:03:56;92675.50;;;2.63;80.98
6198;BME280;3132;42.622;23.328;2023-11-19T03:06:22;92682.09;;;2.70;81.71
6198;BME280;3132;42.622;23.328;2023-11-19T03:08:48;92681.75;;;2.67;81.88
6198;BME280;3132;42.622;23.328;2023-11-19T03:11:13;92679.84;;;2.74;81.29
6198;BME280;3132;42.622;23.328;2023-11-19T03:13:39;92651.75;;;2.61;79.97
6198;BME280;3132;42.622;23.328;2023-11-19T03:16:04;92701.91;;;2.70;80.58
6198;BME280;3132;42.622;23.328;2023-11-19T03:18:30;92697.31;;;2.72;80.33
6198;BME280;3132;42.622;23.328;2023-11-19T03:20:55;92691.94;;;2.73;80.54
6198;BME280;3132;42.622;23.328;2023-11-19T03:23:22;92677.06;;;2.64;80.18
6198;BME280;3132;42.622;23.328;2023-11-19T03:25:48;92695.47;;;2.84;82.70
6198;BME280;3132;42.622;23.328;2023-11-19T03:28:13;92688.09;;;2.76;80.79
6198;BME280;3132;42.622;23.328;2023-11-19T03:30:38;92693.16;;;2.71;80.86
6198;BME280;3132;42.622;23.328;2023-11-19T03:33:04;92700.88;;;2.82;80.45
6198;BME280;3132;42.622;23.328;2023-11-19T03:35:29;92676.13;;;2.70;80.23
6198;BME280;3132;42.622;23.328;2023-11-19T03:37:55;92696.06;;;2.74;80.85
6198;BME280;3132;42.622;23.328;2023-11-19T03:40:21;92691.81;;;2.80;82.41
6198;BME280;3132;42.622;23.328;2023-11-19T03:42:47;92703.03;;;2.74;80.84
6198;BME280;3132;42.622;23.328;2023-11-19T03:45:12;92707.75;;;2.65;81.17
6198;BME280;3132;42.622;23.328;2023-11-19T03:47:38;92688.41;;;2.91;81.76
6198;BME280;3132;42.622;23.328;2023-11-19T03:50:04;92704.59;;;2.75;81.12
6198;BME280;3132;42.622;23.328;2023-11-19T03:52:30;92723.97;;;2.77;80.75
6198;BME280;3132;42.622;23.328;2023-11-19T03:54:55;92738.94;;;2.92;83.23
6198;BME280;3132;42.622;23.328;2023-11-19T03:57:22;92736.28;;;2.87;81.76
6198;BME280;3132;42.622;23.328;2023-11-19T03:59:47;92744.44;;;2.95;80.97
6198;BME280;3132;42.622;23.328;2023-11-19T04:02:13;92738.00;;;2.70;81.44
6198;BME280;3132;42.622;23.328;2023-11-19T04:04:38;92735.28;;;2.76;80.76
6198;BME280;3132;42.622;23.328;2023-11-19T04:07:04;92743.72;;;2.60;82.07
6198;BME280;3132;42.622;23.328;2023-11-19T04:09:30;92722.19;;;2.78;81.95
6198;BME280;3132;42.622;23.328;2023-11-19T04:11:58;92741.53;;;2.92;83.84
6198;BME280;3132;42.622;23.328;2023-11-19T04:14:23;92707.34;;;2.57;81.69
6198;BME280;3132;42.622;23.328;2023-11-19T04:16:49;92741.84;;;2.56;82.16
6198;BME280;3132;42.622;23.328;2023-11-19T04:19:14;92743.84;;;2.54;83.07
6198;BME280;3132;42.622;23.328;2023-11-19T04:21:40;92730.97;;;2.54;83.20
6198;BME280;3132;42.622;23.328;2023-11-19T04:24:07;92735.09;;;2.66;82.75
6198;BME280;3132;42.622;23.328;2023-11-19T04:26:33;92715.81;;;2.69;85.75
6198;BME280;3132;42.622;23.328;2023-11-19T04:28:59;92716.59;;;2.69;81.93
6198;BME280;3132;42.622;23.328;2023-11-19T04:31:29;92721.63;;;2.76;81.30
6198;BME280;3132;42.622;23.328;2023-11-19T04:33:56;92730.53;;;2.57;81.52
6198;BME280;3132;42.622;23.328;2023-11-19T04:36:22;92727.50;;;2.60;81.65
6198;BME280;3132;42.622;23.328;2023-11-19T04:38:49;92724.47;;;2.63;81.36
6198;BME280;3132;42.622;23.328;2023-11-19T04:41:15;92733.22;;;2.39;81.78
6198;BME280;3132;42.622;23.328;2023-11-19T04:43:40;92727.50;;;2.37;81.80
6198;BME280;3132;42.622;23.328;2023-11-19T04:46:05;92730.53;;;2.45;82.06
6198;BME280;3132;42.622;23.328;2023-11-19T04:48:31;92722.34;;;2.37;81.35
6198;BME280;3132;42.622;23.328;2023-11-19T04:50:56;92745.19;;;2.45;81.46
6198;BME280;3132;42.622;23.328;2023-11-19T04:53:22;92735.81;;;2.50;81.12
6198;BME280;3132;42.622;23.328;2023-11-19T04:55:47;92756.06;;;2.35;81.45
6198;BME280;3132;42.622;23.328;2023-11-19T04:58:12;92755.41;;;2.40;81.90
6198;BME280;3132;42.622;23.328;2023-11-19T05:00:38;92743.66;;;2.44;81.79
6198;BME280;3132;42.622;23.328;2023-11-19T05:03:03;92753.19;;;2.32;80.97
6198;BME280;3132;42.622;23.328;2023-11-19T05:05:29;92784.88;;;2.44;81.10
6198;BME280;3132;42.622;23.328;2023-11-19T05:07:54;92782.84;;;2.34;81.08
6198;BME280;3132;42.622;23.328;2023-11-19T05:10:20;92792.03;;;2.42;80.88
6198;BME280;3132;42.622;23.328;2023-11-19T05:12:45;92798.75;;;2.54;81.54
6198;BME280;3132;42.622;23.328;2023-11-19T05:15:11;92806.34;;;2.49;81.18
6198;BME280;3132;42.622;23.328;2023-11-19T05:17:38;92789.44;;;2.42;80.97
6198;BME280;3132;42.622;23.328;2023-11-19T05:20:05;92762.78;;;2.48;81.30
6198;BME280;3132;42.622;23.328;2023-11-19T05:22:31;92784.19;;;2.48;80.94
6198;BME280;3132;42.622;23.328;2023-11-19T05:24:57;92781.16;;;2.51;80.91
6198;BME280;3132;42.622;23.328;2023-11-19T05:27:22;92765.81;;;2.45;80.61
6198;BME280;3132;42.622;23.328;2023-11-19T05:29:49;92763.81;;;2.47;81.26
6198;BME280;3132;42.622;23.328;2023-11-19T05:32:14;92770.06;;;2.62;80.85
6198;BME280;3132;42.622;23.328;2023-11-19T05:34:40;92747.91;;;2.50;81.20
6198;BME280;3132;42.622;23.328;2023-11-19T05:37:05;92789.66;;;2.75;81.71
6198;BME280;3132;42.622;23.328;2023-11-19T05:39:31;92791.25;;;2.64;81.73
6198;BME280;3132;42.622;23.328;2023-11-19T05:41:56;92797.00;;;2.94;81.45
6198;BME280;3132;42.622;23.328;2023-11-19T05:44:21;92794.34;;;2.78;80.07
6198;BME280;3132;42.622;23.328;2023-11-19T05:46:47;92780.59;;;2.49;80.77
6198;BME280;3132;42.622;23.328;2023-11-19T05:49:12;92790.59;;;2.46;81.03
6198;BME280;3132;42.622;23.328;2023-11-19T05:51:39;92781.50;;;2.55;82.90
6198;BME280;3132;42.622;23.328;2023-11-19T05:54:07;92783.59;;;2.69;81.44
6198;BME280;3132;42.622;23.328;2023-11-19T05:56:33;92789.56;;;2.47;81.58
6198;BME280;3132;42.622;23.328;2023-11-19T05:58:59;92785.44;;;2.46;81.80
6198;BME280;3132;42.622;23.328;2023-11-19T06:01:29;92782.75;;;2.41;85.81
6198;BME280;3132;42.622;23.328;2023-11-19T06:03:54;92796.38;;;2.41;81.63
6198;BME280;3132;42.622;23.328;2023-11-19T06:06:20;92798.63;;;2.49;81.60
6198;BME280;3132;42.622;23.328;2023-11-19T06:08:45;92801.88;;;2.56;81.44
6198;BME280;3132;42.622;23.328;2023-11-19T06:11:11;92819.25;;;2.49;81.88
6198;BME280;3132;42.622;23.328;2023-11-19T06:13:40;92815.97;;;2.54;81.44
6198;BME280;3132;42.622;23.328;2023-11-19T06:16:05;92793.28;;;2.39;82.60
6198;BME280;3132;42.622;23.328;2023-11-19T06:18:31;92808.81;;;2.56;81.96
6198;BME280;3132;42.622;23.328;2023-11-19T06:20:56;92800.75;;;2.52;80.93
6198;BME280;3132;42.622;23.328;2023-11-19T06:23:22;92801.44;;;2.36;82.09
6198;BME280;3132;42.622;23.328;2023-11-19T06:25:47;92783.72;;;2.63;83.27
6198;BME280;3132;42.622;23.328;2023-11-19T06:28:12;92780.38;;;2.51;82.58
6198;BME280;3132;42.622;23.328;2023-11-19T06:30:38;92803.47;;;2.46;82.52
6198;BME280;3132;42.622;23.328;2023-11-19T06:33:04;92808.16;;;2.72;83.55
6198;BME280;3132;42.622;23.328;2023-11-19T06:35:29;92805.69;;;2.54;82.07
6198;BME280;3132;42.622;23.328;2023-11-19T06:38:04;92771.97;;;2.55;81.61
6198;BME280;3132;42.622;23.328;2023-11-19T06:40:33;92809.81;;;2.78;82.22
6198;BME280;3132;42.622;23.328;2023-11-19T06:43:00;92815.31;;;2.47;81.85
6198;BME280;3132;42.622;23.328;2023-11-19T06:45:26;92806.56;;;2.71;81.48
6198;BME280;3132;42.622;23.328;2023-11-19T06:47:51;92807.25;;;2.66;81.53
6198;BME280;3132;42.622;23.328;2023-11-19T06:50:17;92803.00;;;2.72;81.12
6198;BME280;3132;42.622;23.328;2023-11-19T06:52:44;92808.03;;;2.55;82.04
6198;BME280;3132;42.622;23.328;2023-11-19T06:55:10;92814.44;;;2.64;80.68
6198;BME280;3132;42.622;23.328;2023-11-19T06:57:36;92822.84;;;2.48;80.83
6198;BME280;3132;42.622;23.328;2023-11-19T07:00:02;92826.50;;;2.87;80.83
6198;BME280;3132;42.622;23.328;2023-11-19T07:02:28;92826.41;;;2.70;80.22
6198;BME280;3132;42.622;23.328;2023-11-19T07:04:53;92819.81;;;2.63;80.47
6198;BME280;3132;42.622;23.328;2023-11-19T07:07:19;92831.00;;;2.80;79.80
6198;BME280;3132;42.622;23.328;2023-11-19T07:09:45;92783.06;;;2.56;80.10
6198;BME280;3132;42.622;23.328;2023-11-19T07:12:10;92823.84;;;2.59;80.95
6198;BME280;3132;42.622;23.328;2023-11-19T07:14:36;92841.16;;;2.86;80.94
6198;BME280;3132;42.622;23.328;2023-11-19T07:17:01;92843.19;;;3.07;80.41
6198;BME280;3132;42.622;23.328;2023-11-19T07:19:27;92850.84;;;2.91;79.13
6198;BME280;3132;42.622;23.328;2023-11-19T07:21:52;92850.94;;;2.73;80.17
6198;BME280;3132;42.622;23.328;2023-11-19T07:24:19;92843.53;;;2.65;81.29
6198;BME280;3132;42.622;23.328;2023-11-19T07:26:46;92853.41;;;2.45;80.85
6198;BME280;3132;42.622;23.328;2023-11-19T07:29:12;92854.88;;;2.64;81.02
6198;BME280;3132;42.622;23.328;2023-11-19T07:31:38;92849.47;;;2.54;79.76
6198;BME280;3132;42.622;23.328;2023-11-19T07:34:04;92857.31;;;2.82;79.72
6198;BME280;3132;42.622;23.328;2023-11-19T07:36:31;92867.66;;;2.70;79.47
6198;BME280;3132;42.622;23.328;2023-11-19T07:38:58;92899.47;;;2.64;80.03
6198;BME280;3132;42.622;23.328;2023-11-19T07:41:23;92879.19;;;2.68;78.90
6198;BME280;3132;42.622;23.328;2023-11-19T07:43:50;92873.59;;;2.59;79.10
6198;BME280;3132;42.622;23.328;2023-11-19T07:46:17;92869.22;;;2.83;79.40
6198;BME280;3132;42.622;23.328;2023-11-19T07:48:44;92883.91;;;2.94;78.53
6198;BME280;3132;42.622;23.328;2023-11-19T07:51:11;92871.09;;;3.10;77.97
6198;BME280;3132;42.622;23.328;2023-11-19T07:53:37;92889.97;;;2.88;77.94
6198;BME280;3132;42.622;23.328;2023-11-19T07:56:03;92885.44;;;3.18;76.62
6198;BME280;3132;42.622;23.328;2023-11-19T07:58:29;92890.31;;;3.43;76.01
6198;BME280;3132;42.622;23.328;2023-11-19T08:00:55;92873.91;;;2.86;76.90
6198;BME280;3132;42.622;23.328;2023-11-19T08:03:20;92886.50;;;3.45;76.40
6198;BME280;3132;42.622;23.328;2023-11-19T08:05:47;92893.69;;;3.43;74.84
6198;BME280;3132;42.622;23.328;2023-11-19T08:08:12;92907.53;;;3.65;73.98
6198;BME280;3132;42.622;23.328;2023-11-19T08:10:38;92904.50;;;3.68;73.80
6198;BME280;3132;42.622;23.328;2023-11-19T08:13:03;92901.59;;;3.65;75.31
6198;BME280;3132;42.622;23.328;2023-11-19T08:15:29;92899.34;;;3.57;74.35
6198;BME280;3132;42.622;23.328;2023-11-19T08:17:54;92903.00;;;3.72;74.82
6198;BME280;3132;42.622;23.328;2023-11-19T08:20:20;92922.28;;;3.42;73.99
6198;BME280;3132;42.622;23.328;2023-11-19T08:22:45;92923.56;;;2.93;76.27
6198;BME280;3132;42.622;23.328;2023-11-19T08:25:10;92916.63;;;3.05;76.07
6198;BME280;3132;42.622;23.328;2023-11-19T08:27:36;92908.06;;;3.16;76.24
6198;BME280;3132;42.622;23.328;2023-11-19T08:30:01;92912.13;;;3.12;76.01
6198;BME280;3132;42.622;23.328;2023-11-19T08:32:27;92912.44;;;3.27;75.70
6198;BME280;3132;42.622;23.328;2023-11-19T08:34:53;92900.09;;;3.29;75.50
6198;BME280;3132;42.622;23.328;2023-11-19T08:37:19;92904.72;;;3.15;76.41
6198;BME280;3132;42.622;23.328;2023-11-19T08:39:49;92905.16;;;3.24;75.70
6198;BME280;3132;42.622;23.328;2023-11-19T08:42:16;92896.72;;;3.40;76.33
6198;BME280;3132;42.622;23.328;2023-11-19T08:44:41;92913.91;;;4.02;75.25
6198;BME280;3132;42.622;23.328;2023-11-19T08:47:09;92906.47;;;3.50;74.93
6198;BME280;3132;42.622;23.328;2023-11-19T08:49:35;92860.50;;;3.35;74.60
6198;BME280;3132;42.622;23.328;2023-11-19T08:52:00;92909.88;;;3.78;75.10
6198;BME280;3132;42.622;23.328;2023-11-19T08:54:25;92898.13;;;3.59;74.74
6198;BME280;3132;42.622;23.328;2023-11-19T08:56:51;92908.34;;;3.66;74.25
6198;BME280;3132;42.622;23.328;2023-11-19T08:59:16;92901.56;;;3.76;75.27
6198;BME280;3132;42.622;23.328;2023-11-19T09:01:42;92895.88;;;3.91;74.67
6198;BME280;3132;42.622;23.328;2023-11-19T09:04:07;92899.47;;;3.90;74.82
6198;BME280;3132;42.622;23.328;2023-11-19T09:06:33;92872.72;;;3.68;74.74
6198;BME280;3132;42.622;23.328;2023-11-19T09:08:58;92883.47;;;4.04;74.60
6198;BME280;3132;42.622;23.328;2023-11-19T09:11:27;92890.78;;;3.79;74.37
6198;BME280;3132;42.622;23.328;2023-11-19T09:13:53;92874.69;;;3.61;75.58
6198;BME280;3132;42.622;23.328;2023-11-19T09:16:18;92861.63;;;3.39;74.88
6198;BME280;3132;42.622;23.328;2023-11-19T09:18:44;92825.09;;;3.19;75.93
6198;BME280;3132;42.622;23.328;2023-11-19T09:21:11;92839.94;;;3.40;76.32
6198;BME280;3132;42.622;23.328;2023-11-19T09:23:36;92865.13;;;3.21;77.31
6198;BME280;3132;42.622;23.328;2023-11-19T09:26:05;92862.44;;;3.16;76.70
6198;BME280;3132;42.622;23.328;2023-11-19T09:28:31;92885.44;;;3.18;75.77
6198;BME280;3132;42.622;23.328;2023-11-19T09:30:56;92902.69;;;3.29;75.55
6198;BME280;3132;42.622;23.328;2023-11-19T09:33:22;92889.72;;;3.52;75.07
6198;BME280;3132;42.622;23.328;2023-11-19T09:35:47;92881.97;;;3.52;74.91
6198;BME280;3132;42.622;23.328;2023-11-19T09:38:15;92875.09;;;3.18;75.05
6198;BME280;3132;42.622;23.328;2023-11-19T09:40:40;92843.41;;;3.06;76.73
6198;BME280;3132;42.622;23.328;2023-11-19T09:43:07;92840.50;;;3.42;75.46
6198;BME280;3132;42.622;23.328;2023-11-19T09:45:52;92834.53;;;3.53;74.95
6198;BME280;3132;42.622;23.328;2023-11-19T09:48:18;92813.53;;;3.21;74.77
6198;BME280;3132;42.622;23.328;2023-11-19T09:50:47;92832.09;;;3.47;75.23
6198;BME280;3132;42.622;23.328;2023-11-19T09:53:14;92768.13;;;3.49;75.37
6198;BME280;3132;42.622;23.328;2023-11-19T09:55:39;92800.75;;;3.55;76.03
6198;BME280;3132;42.622;23.328;2023-11-19T09:58:06;92803.09;;;3.56;76.47
6198;BME280;3132;42.622;23.328;2023-11-19T10:00:32;92805.38;;;3.69;76.20
6198;BME280;3132;42.622;23.328;2023-11-19T10:02:58;92807.44;;;3.67;75.30
6198;BME280;3132;42.622;23.328;2023-11-19T10:05:24;92803.59;;;3.70;77.08
6198;BME280;3132;42.622;23.328;2023-11-19T10:07:51;92787.66;;;3.89;75.51
6198;BME280;3132;42.622;23.328;2023-11-19T10:10:17;92808.66;;;3.65;76.37
6198;BME280;3132;42.622;23.328;2023-11-19T10:12:45;92801.16;;;3.63;76.16
6198;BME280;3132;42.622;23.328;2023-11-19T10:15:20;92794.78;;;3.54;75.40
6198;BME280;3132;42.622;23.328;2023-11-19T10:17:46;92798.31;;;3.48;76.18
6198;BME280;3132;42.622;23.328;2023-11-19T10:20:11;92790.00;;;3.46;75.76
6198;BME280;3132;42.622;23.328;2023-11-19T10:22:37;92812.34;;;3.69;74.83
6198;BME280;3132;42.622;23.328;2023-11-19T10:25:03;92818.47;;;3.79;75.34
6198;BME280;3132;42.622;23.328;2023-11-19T10:27:29;92808.38;;;3.78;72.87
6198;BME280;3132;42.622;23.328;2023-11-19T10:29:59;92796.91;;;3.57;72.34
6198;BME280;3132;42.622;23.328;2023-11-19T10:32:24;92807.59;;;3.77;73.01
6198;BME280;3132;42.622;23.328;2023-11-19T10:34:50;92801.50;;;3.83;72.63
6198;BME280;3132;42.622;23.328;2023-11-19T10:37:28;92794.31;;;3.85;72.50
6198;BME280;3132;42.622;23.328;2023-11-19T10:39:57;92790.09;;;3.96;71.08
6198;BME280;3132;42.622;23.328;2023-11-19T10:42:23;92778.81;;;4.02;71.01
6198;BME280;3132;42.622;23.328;2023-11-19T10:44:49;92801.81;;;4.03;70.49
6198;BME280;3132;42.622;23.328;2023-11-19T10:47:15;92818.41;;;3.91;70.94
6198;BME280;3132;42.622;23.328;2023-11-19T10:49:43;92790.41;;;3.83;71.42
6198;BME280;3132;42.622;23.328;2023-11-19T10:52:11;92799.28;;;3.75;71.53
6198;BME280;3132;42.622;23.328;2023-11-19T10:54:39;92786.09;;;3.88;71.26
6198;BME280;3132;42.622;23.328;2023-11-19T10:57:09;92772.09;;;3.84;70.02
6198;BME280;3132;42.622;23.328;2023-11-19T10:59:38;92800.09;;;3.92;69.74
6198;BME280;3132;42.622;23.328;2023-11-19T11:02:07;92799.41;;;4.13;69.66
6198;BME280;3132;42.622;23.328;2023-11-19T11:04:39;92805.75;;;4.06;68.48
6198;BME280;3132;42.622;23.328;2023-11-19T11:07:05;92797.31;;;4.10;69.03
6198;BME280;3132;42.622;23.328;2023-11-19T11:09:32;92780.78;;;3.95;69.63
6198;BME280;3132;42.622;23.328;2023-11-19T11:11:59;92788.06;;;4.14;67.63
6198;BME280;3132;42.622;23.328;2023-11-19T11:14:25;92756.03;;;3.99;68.52
6198;BME280;3132;42.622;23.328;2023-11-19T11:16:53;92771.16;;;4.23;66.71
6198;BME280;3132;42.622;23.328;2023-11-19T11:19:19;92771.16;;;4.23;68.57
6198;BME280;3132;42.622;23.328;2023-11-19T11:21:52;92749.84;;;4.16;67.30
6198;BME280;3132;42.622;23.328;2023-11-19T11:24:34;92777.53;;;4.37;67.44
6198;BME280;3132;42.622;23.328;2023-11-19T11:30:17;92775.50;;;4.39;68.45
6198;BME280;3132;42.622;23.328;2023-11-19T11:32:54;92772.53;;;4.47;68.04
6198;BME280;3132;42.622;23.328;2023-11-19T11:35:41;92776.75;;;4.70;66.68
6198;BME280;3132;42.622;23.328;2023-11-19T11:38:09;92784.72;;;4.68;65.95
6198;BME280;3132;42.622;23.328;2023-11-19T11:40:35;92787.38;;;4.73;66.59
6198;BME280;3132;42.622;23.328;2023-11-19T11:43:01;92758.78;;;4.42;67.59
6198;BME280;3132;42.622;23.328;2023-11-19T11:45:38;92729.47;;;4.36;67.00
6198;BME280;3132;42.622;23.328;2023-11-19T11:48:08;92753.81;;;4.78;67.10
6198;BME280;3132;42.622;23.328;2023-11-19T11:50:34;92736.41;;;4.52;66.64
6198;BME280;3132;42.622;23.328;2023-11-19T11:55:52;92714.97;;;4.73;66.22
6198;BME280;3132;42.622;23.328;2023-11-19T11:58:19;92771.22;;;5.05;65.22
6198;BME280;3132;42.622;23.328;2023-11-19T12:00:47;92766.09;;;5.10;62.83
6198;BME280;3132;42.622;23.328;2023-11-19T12:03:12;92776.09;;;5.23;63.17
6198;BME280;3132;42.622;23.328;2023-11-19T12:05:42;92786.97;;;5.25;62.68
6198;BME280;3132;42.622;23.328;2023-11-19T12:08:10;92755.09;;;4.97;64.47
6198;BME280;3132;42.622;23.328;2023-11-19T12:10:57;92772.47;;;5.02;65.11
6198;BME280;3132;42.622;23.328;2023-11-19T12:13:24;92774.16;;;4.91;66.21
6198;BME280;3132;42.622;23.328;2023-11-19T12:18:29;92750.97;;;5.23;65.65
6198;BME280;3132;42.622;23.328;2023-11-19T12:20:55;92755.88;;;5.20;64.58
6198;BME280;3132;42.622;23.328;2023-11-19T12:23:22;92737.47;;;5.16;65.14
6198;BME280;3132;42.622;23.328;2023-11-19T12:25:47;92733.13;;;5.00;66.04
6198;BME280;3132;42.622;23.328;2023-11-19T12:28:13;92745.34;;;5.05;65.60
6198;BME280;3132;42.622;23.328;2023-11-19T12:30:39;92743.38;;;5.12;65.30
6198;BME280;3132;42.622;23.328;2023-11-19T12:33:11;92737.22;;;5.18;65.14
6198;BME280;3132;42.622;23.328;2023-11-19T12:35:41;92725.47;;;5.32;64.22
6198;BME280;3132;42.622;23.328;2023-11-19T12:38:07;92729.31;;;5.56;60.88
6198;BME280;3132;42.622;23.328;2023-11-19T12:40:33;92736.25;;;5.50;62.71
6198;BME280;3132;42.622;23.328;2023-11-19T12:42:58;92735.97;;;5.47;62.31
6198;BME280;3132;42.622;23.328;2023-11-19T12:45:34;92724.06;;;5.46;61.75
6198;BME280;3132;42.622;23.328;2023-11-19T12:48:07;92709.44;;;5.35;63.45
6198;BME280;3132;42.622;23.328;2023-11-19T12:50:55;92717.84;;;5.47;62.21
6198;BME280;3132;42.622;23.328;2023-11-19T12:53:25;92723.13;;;5.30;63.12
6198;BME280;3132;42.622;23.328;2023-11-19T12:55:52;92711.31;;;5.39;62.57
6198;BME280;3132;42.622;23.328;2023-11-19T12:58:34;92714.06;;;5.33;63.25
6198;BME280;3132;42.622;23.328;2023-11-19T13:01:06;92698.22;;;5.24;63.33
6198;BME280;3132;42.622;23.328;2023-11-19T13:03:32;92736.38;;;5.34;63.24
6198;BME280;3132;42.622;23.328;2023-11-19T13:06:06;92712.59;;;5.42;62.11
6198;BME280;3132;42.622;23.328;2023-11-19T13:08:42;92705.19;;;5.50;61.15
6198;BME280;3132;42.622;23.328;2023-11-19T13:11:09;92723.66;;;5.59;61.22
6198;BME280;3132;42.622;23.328;2023-11-19T13:13:57;92730.22;;;5.66;60.35
6198;BME280;3132;42.622;23.328;2023-11-19T13:16:24;92724.25;;;5.66;59.93
6198;BME280;3132;42.622;23.328;2023-11-19T13:18:49;92723.19;;;5.67;59.93
6198;BME280;3132;42.622;23.328;2023-11-19T13:21:15;92725.22;;;5.60;59.80
6198;BME280;3132;42.622;23.328;2023-11-19T13:23:40;92726.59;;;5.41;59.56
6198;BME280;3132;42.622;23.328;2023-11-19T13:26:05;92713.59;;;5.36;59.82
6198;BME280;3132;42.622;23.328;2023-11-19T13:28:31;92706.19;;;5.44;60.58